createdAt,value
2023-02-19T00:01:35.350Z,101472.22
2023-02-19T00:04:03.811Z,101473.25
2023-02-19T00:06:33.191Z,101473.25
2023-02-19T00:09:00.291Z,101475.94
2023-02-19T00:11:29.814Z,101475.69
2023-02-19T00:13:58.563Z,101468.50
2023-02-19T00:16:26.731Z,101465.84
2023-02-19T00:18:55.116Z,101469.44
2023-02-19T00:21:21.785Z,101473.94
2023-02-19T00:23:50.703Z,101460.69
2023-02-19T00:26:18.884Z,101466.03
2023-02-19T00:28:46.391Z,101460.69
2023-02-19T00:31:17.819Z,101474.03
2023-02-19T00:33:44.537Z,101487.13
2023-02-19T00:36:11.144Z,101487.34
2023-02-19T00:38:38.999Z,101485.91
2023-02-19T00:41:07.050Z,101477.91
2023-02-19T00:43:33.574Z,101472.91
2023-02-19T00:46:00.098Z,101473.69
2023-02-19T00:48:26.661Z,101475.75
2023-02-19T00:50:53.166Z,101478.16
2023-02-19T00:53:19.768Z,101478.25
2023-02-19T00:55:46.329Z,101484.78
2023-02-19T00:58:14.207Z,101490.66
2023-02-19T01:00:40.847Z,101487.22
2023-02-19T01:03:07.467Z,101485.41
2023-02-19T01:05:33.980Z,101493.94
2023-02-19T01:08:00.520Z,101491.63
2023-02-19T01:10:27.140Z,101496.97
2023-02-19T01:12:53.652Z,101503.84
2023-02-19T01:15:21.511Z,101501.16
2023-02-19T01:17:48.033Z,101508.22
2023-02-19T01:20:14.581Z,101501.59
2023-02-19T01:22:41.064Z,101517.72
2023-02-19T01:25:08.099Z,101525.75
2023-02-19T01:27:34.660Z,101518.06
2023-02-19T01:30:01.215Z,101521.19
2023-02-19T01:32:29.303Z,101516.69
2023-02-19T01:34:55.823Z,101509.47
2023-02-19T01:37:22.346Z,101513.16
2023-02-19T01:39:48.815Z,101507.38
2023-02-19T01:42:16.378Z,101513.16
2023-02-19T01:45:07.576Z,101512.22
2023-02-19T01:47:35.431Z,101509.63
2023-02-19T01:50:02.019Z,101514.03
2023-02-19T01:52:31.986Z,101520.50
2023-02-19T01:55:00.191Z,101524.81
2023-02-19T01:57:31.906Z,101508.84
2023-02-19T02:00:04.200Z,101512.50
2023-02-19T02:02:30.864Z,101516.19
2023-02-19T02:04:59.889Z,101518.69
2023-02-19T02:07:26.754Z,101520.44
2023-02-19T02:09:53.771Z,101515.84
2023-02-19T02:12:20.262Z,101526.53
2023-02-19T02:14:48.085Z,101525.78
2023-02-19T02:17:25.008Z,101525.78
2023-02-19T02:20:22.980Z,101535.50
2023-02-19T02:22:57.744Z,101530.16
2023-02-19T02:25:40.038Z,101526.81
2023-02-19T02:28:33.314Z,101528.53
2023-02-19T02:31:04.445Z,101523.28
2023-02-19T02:33:36.628Z,101536.72
2023-02-19T02:36:07.328Z,101530.25
2023-02-19T02:38:37.767Z,101530.94
2023-02-19T02:41:06.077Z,101531.13
2023-02-19T02:43:32.687Z,101536.19
2023-02-19T02:46:00.658Z,101540.00
2023-02-19T02:48:33.160Z,101531.03
2023-02-19T02:51:05.312Z,101531.97
2023-02-19T02:53:36.983Z,101528.63
2023-02-19T02:56:04.737Z,101521.38
2023-02-19T02:58:32.438Z,101516.97
2023-02-19T03:01:06.643Z,101506.38
2023-02-19T03:03:38.446Z,101509.13
2023-02-19T03:06:08.073Z,101509.13
2023-02-19T03:08:38.197Z,101513.44
2023-02-19T03:11:07.384Z,101510.59
2023-02-19T03:13:38.628Z,101517.75
2023-02-19T03:16:12.492Z,101517.16
2023-02-19T03:18:43.323Z,101513.34
2023-02-19T03:21:10.309Z,101516.19
2023-02-19T03:23:37.431Z,101512.75
2023-02-19T03:26:04.078Z,101512.75
2023-02-19T03:28:32.892Z,101515.34
2023-02-19T03:30:59.475Z,101512.59
2023-02-19T03:33:29.199Z,101509.91
2023-02-19T03:36:01.014Z,101515.16
2023-02-19T03:38:36.697Z,101516.03
2023-02-19T03:41:10.626Z,101512.59
2023-02-19T03:43:42.230Z,101512.41
2023-02-19T03:46:14.369Z,101515.25
2023-02-19T03:48:51.302Z,101507.31
2023-02-19T03:51:29.635Z,101507.13
2023-02-19T03:54:07.320Z,101509.91
2023-02-19T03:56:38.729Z,101512.59
2023-02-19T03:59:11.551Z,101508.97
2023-02-19T04:01:43.350Z,101508.19
2023-02-19T04:04:16.657Z,101518.53
2023-02-19T04:06:46.679Z,101520.44
2023-02-19T04:09:14.746Z,101524.28
2023-02-19T04:11:42.080Z,101520.00
2023-02-19T04:14:14.235Z,101514.81
2023-02-19T04:16:45.297Z,101519.31
2023-02-19T04:19:18.374Z,101524.03
2023-02-19T04:21:46.355Z,101532.91
2023-02-19T04:24:18.441Z,101536.19
2023-02-19T04:26:45.884Z,101540.84
2023-02-19T04:29:12.487Z,101538.53
2023-02-19T04:31:39.185Z,101546.38
2023-02-19T04:34:05.951Z,101535.69
2023-02-19T04:36:34.483Z,101540.06
2023-02-19T04:39:01.242Z,101536.66
2023-02-19T04:41:28.102Z,101538.25
2023-02-19T04:43:54.962Z,101539.81
2023-02-19T04:46:21.559Z,101554.28
2023-02-19T04:48:48.147Z,101556.38
2023-02-19T04:51:14.680Z,101553.72
2023-02-19T04:53:42.484Z,101552.84
2023-02-19T04:56:11.081Z,101558.88
2023-02-19T04:58:37.697Z,101547.41
2023-02-19T05:01:04.660Z,101555.41
2023-02-19T05:03:31.674Z,101560.00
2023-02-19T05:05:58.162Z,101560.25
2023-02-19T05:08:25.632Z,101566.22
2023-02-19T05:10:57.721Z,101572.06
2023-02-19T05:13:24.351Z,101580.00
2023-02-19T05:15:55.721Z,101572.16
2023-02-19T05:18:22.397Z,101579.47
2023-02-19T05:20:49.976Z,101588.63
2023-02-19T05:23:16.509Z,101571.72
2023-02-19T05:25:43.015Z,101570.88
2023-02-19T05:28:10.813Z,101575.00
2023-02-19T05:30:37.317Z,101578.09
2023-02-19T05:33:03.874Z,101580.78
2023-02-19T05:35:30.341Z,101582.59
2023-02-19T05:37:56.854Z,101592.94
2023-02-19T05:40:23.348Z,101592.31
2023-02-19T05:42:49.935Z,101598.44
2023-02-19T05:45:17.793Z,101602.09
2023-02-19T05:47:44.296Z,101602.09
2023-02-19T05:50:10.780Z,101599.41
2023-02-19T05:52:37.307Z,101602.09
2023-02-19T05:55:03.964Z,101603.28
2023-02-19T05:57:30.480Z,101600.63
2023-02-19T05:59:57.214Z,101593.81
2023-02-19T06:02:25.090Z,101608.97
2023-02-19T06:04:51.733Z,101617.84
2023-02-19T06:07:18.213Z,101621.91
2023-02-19T06:09:44.736Z,101615.00
2023-02-19T06:12:11.250Z,101616.13
2023-02-19T06:14:37.912Z,101611.56
2023-02-19T06:17:04.398Z,101620.69
2023-02-19T06:19:32.208Z,101618.81
2023-02-19T06:21:58.752Z,101624.00
2023-02-19T06:24:25.312Z,101615.75
2023-02-19T06:26:51.849Z,101623.56
2023-02-19T06:29:18.414Z,101626.22
2023-02-19T06:31:45.332Z,101618.72
2023-02-19T06:34:11.869Z,101618.19
2023-02-19T06:36:39.768Z,101616.72
2023-02-19T06:39:06.471Z,101635.88
2023-02-19T06:41:33.155Z,101641.31
2023-02-19T06:43:59.958Z,101635.97
2023-02-19T06:46:26.667Z,101632.34
2023-02-19T06:48:53.351Z,101628.81
2023-02-19T06:51:20.092Z,101633.28
2023-02-19T06:53:48.049Z,101640.41
2023-02-19T06:56:25.290Z,101647.69
2023-02-19T06:58:52.177Z,101647.00
2023-02-19T07:01:18.827Z,101653.94
2023-02-19T07:03:45.445Z,101647.84
2023-02-19T07:06:11.948Z,101650.59
2023-02-19T07:08:38.414Z,101657.34
2023-02-19T07:11:06.323Z,101661.63
2023-02-19T07:13:33.133Z,101655.75
2023-02-19T07:16:01.020Z,101659.38
2023-02-19T07:18:28.340Z,101663.72
2023-02-19T07:20:54.904Z,101672.44
2023-02-19T07:23:21.488Z,101677.59
2023-02-19T07:25:48.006Z,101682.31
2023-02-19T07:28:15.818Z,101682.66
2023-02-19T07:30:42.309Z,101695.84
2023-02-19T07:33:10.694Z,101702.84
2023-02-19T07:35:37.282Z,101707.41
2023-02-19T07:38:03.937Z,101705.69
2023-02-19T07:40:30.429Z,101707.59
2023-02-19T07:42:59.204Z,101706.53
2023-02-19T07:45:27.037Z,101710.88
2023-02-19T07:47:53.536Z,101709.50
2023-02-19T07:50:20.166Z,101708.97
2023-02-19T07:52:46.670Z,101715.19
2023-02-19T07:55:13.155Z,101710.00
2023-02-19T07:57:39.669Z,101711.72
2023-02-19T08:00:06.744Z,101705.63
2023-02-19T08:02:34.642Z,101711.88
2023-02-19T08:05:01.264Z,101703.00
2023-02-19T08:07:31.377Z,101706.63
2023-02-19T08:09:57.986Z,101718.09
2023-02-19T08:12:24.504Z,101720.75
2023-02-19T08:14:51.030Z,101720.00
2023-02-19T08:17:17.602Z,101720.00
2023-02-19T08:19:45.444Z,101725.25
2023-02-19T08:22:12.084Z,101720.00
2023-02-19T08:24:38.587Z,101723.25
2023-02-19T08:27:05.095Z,101739.47
2023-02-19T08:29:31.585Z,101741.97
2023-02-19T08:31:58.109Z,101736.72
2023-02-19T08:34:24.655Z,101732.25
2023-02-19T08:36:52.560Z,101733.25
2023-02-19T08:39:20.980Z,101736.03
2023-02-19T08:41:47.630Z,101736.72
2023-02-19T08:44:14.088Z,101733.09
2023-02-19T08:46:40.600Z,101731.38
2023-02-19T08:49:07.100Z,101730.69
2023-02-19T08:51:33.641Z,101721.81
2023-02-19T08:54:03.731Z,101719.84
2023-02-19T08:56:30.403Z,101726.91
2023-02-19T08:58:57.187Z,101739.47
2023-02-19T09:01:23.755Z,101742.94
2023-02-19T09:03:50.614Z,101744.75
2023-02-19T09:06:19.922Z,101726.03
2023-02-19T09:08:46.626Z,101731.28
2023-02-19T09:11:15.057Z,101752.34
2023-02-19T09:13:42.149Z,101748.97
2023-02-19T09:16:08.785Z,101750.78
2023-02-19T09:18:35.428Z,101749.94
2023-02-19T09:21:03.639Z,101744.16
2023-02-19T09:23:30.312Z,101754.16
2023-02-19T09:25:57.779Z,101750.69
2023-02-19T09:28:25.887Z,101752.03
2023-02-19T09:30:52.424Z,101758.31
2023-02-19T09:33:18.934Z,101758.31
2023-02-19T09:35:45.412Z,101760.34
2023-02-19T09:38:11.945Z,101763.28
2023-02-19T09:40:39.520Z,101773.13
2023-02-19T09:43:07.689Z,101761.56
2023-02-19T09:45:36.694Z,101761.47
2023-02-19T09:48:04.536Z,101766.03
2023-02-19T09:50:34.806Z,101769.66
2023-02-19T09:53:04.443Z,101765.88
2023-02-19T09:55:33.457Z,101772.25
2023-02-19T09:58:03.328Z,101758.97
2023-02-19T10:00:33.144Z,101758.97
2023-02-19T10:03:05.204Z,101766.19
2023-02-19T10:05:32.691Z,101771.47
2023-02-19T10:07:59.661Z,101768.97
2023-02-19T10:10:30.026Z,101782.22
2023-02-19T10:13:11.428Z,101770.59
2023-02-19T10:15:44.967Z,101767.78
2023-02-19T10:18:13.039Z,101784.84
2023-02-19T10:20:40.284Z,101782.06
2023-02-19T10:23:11.157Z,101781.31
2023-02-19T10:25:44.998Z,101779.31
2023-02-19T10:28:15.919Z,101776.72
2023-02-19T10:30:43.691Z,101791.84
2023-02-19T10:33:12.748Z,101801.81
2023-02-19T10:35:53.153Z,101807.16
2023-02-19T10:38:21.896Z,101810.59
2023-02-19T10:40:48.665Z,101803.53
2023-02-19T10:43:24.988Z,101812.34
2023-02-19T10:45:52.006Z,101809.84
2023-02-19T10:48:23.972Z,101808.63
2023-02-19T10:50:54.995Z,101811.31
2023-02-19T10:53:23.040Z,101817.75
2023-02-19T10:56:06.817Z,101811.25
2023-02-19T10:58:33.505Z,101821.94
2023-02-19T11:01:11.984Z,101808.03
2023-02-19T11:03:38.700Z,101816.19
2023-02-19T11:06:09.038Z,101820.19
2023-02-19T11:08:46.687Z,101820.44
2023-02-19T11:11:23.546Z,101817.13
2023-02-19T11:13:50.583Z,101818.84
2023-02-19T11:16:17.638Z,101824.34
2023-02-19T11:18:44.454Z,101825.47
2023-02-19T11:21:25.608Z,101822.00
2023-02-19T11:23:52.208Z,101823.91
2023-02-19T11:26:20.690Z,101829.69
2023-02-19T11:28:56.382Z,101824.59
2023-02-19T11:31:25.521Z,101826.41
2023-02-19T11:33:56.412Z,101815.88
2023-02-19T11:36:34.587Z,101819.47
2023-02-19T11:39:19.396Z,101822.31
2023-02-19T11:42:03.084Z,101813.28
2023-02-19T11:44:44.808Z,101806.06
2023-02-19T11:47:37.783Z,101805.34
2023-02-19T11:50:16.072Z,101801.81
2023-02-19T11:52:53.152Z,101792.06
2023-02-19T11:55:32.746Z,101796.38
2023-02-19T11:58:16.237Z,101794.81
2023-02-19T12:00:54.607Z,101797.41
2023-02-19T12:03:34.245Z,101808.88
2023-02-19T12:06:15.629Z,101804.25
2023-02-19T12:11:48.891Z,101799.06
2023-02-19T12:14:36.962Z,101791.72
2023-02-19T12:17:10.307Z,101804.16
2023-02-19T12:19:44.974Z,101807.34
2023-02-19T12:22:24.723Z,101793.50
2023-02-19T12:25:16.195Z,101785.91
2023-02-19T12:27:55.636Z,101793.44
2023-02-19T12:30:39.935Z,101793.53
2023-02-19T12:33:14.821Z,101788.09
2023-02-19T12:35:49.765Z,101799.84
2023-02-19T12:38:22.201Z,101795.41
2023-02-19T12:41:00.613Z,101798.91
2023-02-19T12:43:31.705Z,101798.03
2023-02-19T12:46:02.898Z,101799.91
2023-02-19T12:48:35.236Z,101790.00
2023-02-19T12:51:06.772Z,101785.69
2023-02-19T12:53:40.838Z,101780.50
2023-02-19T12:56:10.892Z,101783.03
2023-02-19T12:58:43.992Z,101774.03
2023-02-19T13:01:15.586Z,101775.94
2023-02-19T13:03:49.312Z,101770.19
2023-02-19T13:06:25.544Z,101775.28
2023-02-19T13:09:06.609Z,101791.41
2023-02-19T13:11:38.220Z,101802.97
2023-02-19T13:14:13.577Z,101798.63
2023-02-19T13:16:44.146Z,101795.19
2023-02-19T13:19:10.738Z,101796.81
2023-02-19T13:21:38.384Z,101797.00
2023-02-19T13:24:09.265Z,101805.03
2023-02-19T13:26:49.582Z,101800.53
2023-02-19T13:29:33.851Z,101799.69
2023-02-19T13:32:10.088Z,101791.56
2023-02-19T13:34:53.259Z,101778.66
2023-02-19T13:37:20.971Z,101774.16
2023-02-19T13:39:49.693Z,101772.78
2023-02-19T13:42:26.518Z,101778.31
2023-02-19T13:44:57.781Z,101768.53
2023-02-19T13:47:49.962Z,101762.44
2023-02-19T13:50:22.623Z,101768.63
2023-02-19T13:52:49.586Z,101761.22
2023-02-19T13:55:35.876Z,101760.19
2023-02-19T13:58:27.134Z,101758.06
2023-02-19T14:00:55.172Z,101762.56
2023-02-19T14:03:38.968Z,101752.72
2023-02-19T14:06:08.198Z,101750.31
2023-02-19T14:08:46.402Z,101755.88
2023-02-19T14:11:13.270Z,101752.50
2023-02-19T14:13:57.503Z,101742.66
2023-02-19T14:16:50.154Z,101747.00
2023-02-19T14:19:47.918Z,101755.00
2023-02-19T14:22:34.218Z,101760.19
2023-02-19T14:25:01.304Z,101760.34
2023-02-19T14:27:27.948Z,101758.53
2023-02-19T14:29:54.683Z,101755.00
2023-02-19T14:32:21.444Z,101755.00
2023-02-19T14:34:49.361Z,101749.66
2023-02-19T14:37:19.522Z,101749.59
2023-02-19T14:39:46.932Z,101750.63
2023-02-19T14:42:16.670Z,101746.03
2023-02-19T14:44:48.630Z,101732.69
2023-02-19T14:47:18.544Z,101731.81
2023-02-19T14:49:47.790Z,101730.91
2023-02-19T14:52:20.321Z,101737.97
2023-02-19T14:54:52.504Z,101743.38
2023-02-19T14:57:23.430Z,101744.75
2023-02-19T14:59:55.484Z,101745.97
2023-02-19T15:02:22.040Z,101743.38
2023-02-19T15:04:48.935Z,101741.75
2023-02-19T15:07:21.452Z,101739.78
2023-02-19T15:09:50.207Z,101744.31
2023-02-19T15:12:21.078Z,101740.69
2023-02-19T15:14:50.121Z,101734.66
2023-02-19T15:17:24.330Z,101733.47
2023-02-19T15:19:50.960Z,101734.44
2023-02-19T15:22:21.684Z,101732.69
2023-02-19T15:24:48.857Z,101732.78
2023-02-19T15:27:18.129Z,101735.53
2023-02-19T15:29:46.383Z,101730.00
2023-02-19T15:32:17.836Z,101735.03
2023-02-19T15:34:53.805Z,101746.03
2023-02-19T15:37:22.580Z,101748.81
2023-02-19T15:39:51.085Z,101752.44
2023-02-19T15:42:21.369Z,101747.94
2023-02-19T15:44:53.851Z,101761.16
2023-02-19T15:47:26.641Z,101766.50
2023-02-19T15:49:59.464Z,101769.94
2023-02-19T15:52:36.362Z,101755.13
2023-02-19T15:55:13.216Z,101749.84
2023-02-19T15:57:46.075Z,101756.72
2023-02-19T16:00:17.570Z,101753.38
2023-02-19T16:02:45.359Z,101753.28
2023-02-19T16:05:14.303Z,101748.97
2023-02-19T16:07:42.318Z,101749.84
2023-02-19T16:10:20.562Z,101738.44
2023-02-19T16:12:55.909Z,101741.06
2023-02-19T16:15:22.462Z,101739.78
2023-02-19T16:17:49.255Z,101735.19
2023-02-19T16:20:20.414Z,101734.50
2023-02-19T16:22:48.610Z,101737.25
2023-02-19T16:25:27.448Z,101729.31
2023-02-19T16:27:54.587Z,101726.72
2023-02-19T16:30:28.524Z,101723.25
2023-02-19T16:33:04.821Z,101711.72
2023-02-19T16:35:36.068Z,101709.16
2023-02-19T16:38:13.051Z,101712.41
2023-02-19T16:41:06.022Z,101703.69
2023-02-19T16:43:39.202Z,101699.75
2023-02-19T16:46:09.750Z,101701.50
2023-02-19T16:48:36.484Z,101698.03
2023-02-19T16:51:05.642Z,101699.84
2023-02-19T16:53:33.504Z,101696.47
2023-02-19T16:56:00.220Z,101700.16
2023-02-19T16:58:26.781Z,101705.50
2023-02-19T17:00:53.428Z,101705.69
2023-02-19T17:03:23.030Z,101709.16
2023-02-19T17:05:50.050Z,101714.16
2023-02-19T17:08:29.785Z,101717.84
2023-02-19T17:10:57.832Z,101717.00
2023-02-19T17:13:24.411Z,101721.38
2023-02-19T17:15:50.924Z,101727.59
2023-02-19T17:18:17.695Z,101721.28
2023-02-19T17:20:48.327Z,101721.47
2023-02-19T17:23:15.181Z,101728.28
2023-02-19T17:25:41.709Z,101730.25
2023-02-19T17:28:09.498Z,101733.03
2023-02-19T17:30:37.745Z,101733.72
2023-02-19T17:33:05.466Z,101740.91
2023-02-19T17:35:31.995Z,101732.06
2023-02-19T17:37:58.502Z,101741.91
2023-02-19T17:40:33.204Z,101745.53
2023-02-19T17:43:00.205Z,101747.31
2023-02-19T17:45:28.056Z,101750.88
2023-02-19T17:47:54.658Z,101742.94
2023-02-19T17:50:23.391Z,101753.63
2023-02-19T17:52:49.912Z,101755.44
2023-02-19T17:55:17.550Z,101751.97
2023-02-19T17:57:44.100Z,101750.88
2023-02-19T18:00:13.327Z,101750.00
2023-02-19T18:02:41.237Z,101747.47
2023-02-19T18:05:08.124Z,101758.16
2023-02-19T18:07:34.607Z,101755.50
2023-02-19T18:10:01.166Z,101770.66
2023-02-19T18:12:27.967Z,101767.94
2023-02-19T18:14:54.821Z,101764.47
2023-02-19T18:17:21.345Z,101759.91
2023-02-19T18:19:49.293Z,101750.16
2023-02-19T18:22:15.844Z,101764.56
2023-02-19T18:24:45.762Z,101758.97
2023-02-19T18:27:12.237Z,101759.97
2023-02-19T18:29:38.875Z,101771.63
2023-02-19T18:32:05.442Z,101759.28
2023-02-19T18:34:32.306Z,101754.78
2023-02-19T18:37:00.147Z,101755.69
2023-02-19T18:39:26.614Z,101761.09
2023-02-19T18:41:53.159Z,101762.75
2023-02-19T18:44:21.200Z,101758.44
2023-02-19T18:46:47.968Z,101763.75
2023-02-19T18:49:15.216Z,101772.81
2023-02-19T18:51:41.778Z,101776.28
2023-02-19T18:54:09.845Z,101778.00
2023-02-19T18:56:41.791Z,101778.94
2023-02-19T18:59:08.296Z,101771.88
2023-02-19T19:01:34.898Z,101773.69
2023-02-19T19:04:01.565Z,101776.28
2023-02-19T19:06:28.092Z,101771.94
2023-02-19T19:08:54.566Z,101774.63
2023-02-19T19:11:22.389Z,101771.25
2023-02-19T19:13:48.909Z,101772.81
2023-02-19T19:16:15.959Z,101779.75
2023-02-19T19:18:42.432Z,101779.09
2023-02-19T19:21:09.078Z,101781.78
2023-02-19T19:23:35.867Z,101786.16
2023-02-19T19:26:04.805Z,101784.44
2023-02-19T19:28:32.730Z,101786.16
2023-02-19T19:30:59.879Z,101789.63
2023-02-19T19:33:28.028Z,101785.25
2023-02-19T19:35:54.770Z,101782.72
2023-02-19T19:38:21.326Z,101789.63
2023-02-19T19:40:47.828Z,101793.31
2023-02-19T19:43:14.345Z,101788.22
2023-02-19T19:45:42.291Z,101793.25
2023-02-19T19:48:08.973Z,101790.66
2023-02-19T19:50:35.513Z,101799.53
2023-02-19T19:53:01.993Z,101799.53
2023-02-19T19:55:28.626Z,101801.34
2023-02-19T19:57:55.116Z,101795.28
2023-02-19T20:00:21.910Z,101802.38
2023-02-19T20:02:49.824Z,101794.19
2023-02-19T20:05:16.422Z,101799.53
2023-02-19T20:07:42.959Z,101798.66
2023-02-19T20:10:10.565Z,101807.63
2023-02-19T20:12:38.168Z,101801.44
2023-02-19T20:15:05.092Z,101800.47
2023-02-19T20:17:31.602Z,101792.56
2023-02-19T20:19:59.913Z,101795.13
2023-02-19T20:22:26.580Z,101805.81
2023-02-19T20:24:54.682Z,101808.50
2023-02-19T20:27:23.520Z,101796.25
2023-02-19T20:29:50.301Z,101807.88
2023-02-19T20:32:17.391Z,101809.59
2023-02-19T20:34:43.963Z,101794.44
2023-02-19T20:37:11.764Z,101799.00
2023-02-19T20:39:38.280Z,101794.53
2023-02-19T20:42:05.460Z,101795.22
2023-02-19T20:44:32.196Z,101802.28
2023-02-19T20:46:59.840Z,101801.44
2023-02-19T20:49:28.826Z,101809.28
2023-02-19T20:51:57.444Z,101808.44
2023-02-19T20:54:27.293Z,101805.97
2023-02-19T20:56:55.484Z,101800.56
2023-02-19T20:59:24.347Z,101798.91
2023-02-19T21:01:51.020Z,101803.31
2023-02-19T21:04:17.863Z,101810.47
2023-02-19T21:06:44.937Z,101806.06
2023-02-19T21:09:11.993Z,101812.97
2023-02-19T21:11:39.793Z,101810.63
2023-02-19T21:14:06.357Z,101802.53
2023-02-19T21:16:33.158Z,101807.03
2023-02-19T21:18:59.784Z,101805.22
2023-02-19T21:21:27.029Z,101804.16
2023-02-19T21:23:54.787Z,101808.59
2023-02-19T21:26:21.379Z,101801.44
2023-02-19T21:28:50.457Z,101798.91
2023-02-19T21:31:17.120Z,101799.06
2023-02-19T21:33:43.687Z,101799.06
2023-02-19T21:36:10.822Z,101790.09
2023-02-19T21:38:37.648Z,101786.50
2023-02-19T21:41:04.364Z,101785.66
2023-02-19T21:43:30.911Z,101779.25
2023-02-19T21:45:58.751Z,101787.38
2023-02-19T21:48:25.255Z,101782.88
2023-02-19T21:50:51.742Z,101785.66
2023-02-19T21:53:18.248Z,101781.06
2023-02-19T21:55:57.549Z,101785.66
2023-02-19T21:58:25.171Z,101779.50
2023-02-19T22:00:51.699Z,101782.19
2023-02-19T22:03:19.519Z,101782.28
2023-02-19T22:05:46.044Z,101777.78
2023-02-19T22:08:12.522Z,101787.53
2023-02-19T22:10:39.003Z,101785.72
2023-02-19T22:13:05.516Z,101788.38
2023-02-19T22:15:32.024Z,101779.50
2023-02-19T22:17:58.518Z,101778.66
2023-02-19T22:20:26.332Z,101772.34
2023-02-19T22:22:52.859Z,101774.06
2023-02-19T22:25:19.578Z,101770.47
2023-02-19T22:27:46.326Z,101767.09
2023-02-19T22:30:13.145Z,101759.78
2023-02-19T22:32:40.783Z,101764.28
2023-02-19T22:35:07.585Z,101773.22
2023-02-19T22:37:35.401Z,101769.69
2023-02-19T22:40:01.937Z,101777.53
2023-02-19T22:42:28.419Z,101772.19
2023-02-19T22:44:55.122Z,101782.88
2023-02-19T22:47:21.675Z,101775.03
2023-02-19T22:49:48.151Z,101779.50
2023-02-19T22:52:14.771Z,101773.31
2023-02-19T22:54:42.605Z,101773.38
2023-02-19T22:57:09.510Z,101768.72
2023-02-19T22:59:36.231Z,101768.72
2023-02-19T23:02:02.751Z,101761.41
2023-02-19T23:04:29.333Z,101765.13
2023-02-19T23:06:55.846Z,101773.00
2023-02-19T23:09:24.724Z,101773.06
2023-02-19T23:11:53.152Z,101764.28
2023-02-19T23:14:21.053Z,101764.28
2023-02-19T23:16:47.705Z,101773.31
2023-02-19T23:19:15.676Z,101777.69
2023-02-19T23:21:44.326Z,101786.66
2023-02-19T23:24:13.019Z,101789.41
2023-02-19T23:26:42.689Z,101793.56
2023-02-19T23:29:10.938Z,101783.91
2023-02-19T23:31:37.839Z,101780.22
2023-02-19T23:34:04.461Z,101788.38
2023-02-19T23:36:30.978Z,101794.59
2023-02-19T23:38:57.452Z,101778.00
2023-02-19T23:41:23.973Z,101783.59
2023-02-19T23:43:50.512Z,101774.06
2023-02-19T23:46:18.645Z,101773.47
2023-02-19T23:48:45.595Z,101762.69
2023-02-19T23:51:12.203Z,101767.00
2023-02-19T23:53:38.838Z,101770.13
2023-02-19T23:56:06.130Z,101776.75
2023-02-19T23:58:32.672Z,101776.75
